Time;durP1;ratioP1;P1;durP2;ratioP2;P2;SDS_P1;SDS_P2;PMS_P1;PMS_P2;Temp;Humidity;BMP_temperature;BMP_pressure;BME280_temperature;BME280_humidity;BME280_pressure;Samples;Min_cycle;Max_cycle;Signal;HPM_P1;HPM_P2
2023/12/16 00:00:16;;;;;;;14.82;10.27;;;5.40;99.90;;;;;;5075050;28;20418;-63
2023/12/16 00:02:42;;;;;;;16.48;10.75;;;5.40;99.90;;;;;;5073086;28;20104;-63
2023/12/16 00:05:08;;;;;;;15.15;10.55;;;5.40;99.90;;;;;;5054323;28;20113;-64
2023/12/16 00:07:34;;;;;;;15.88;10.43;;;5.40;99.90;;;;;;5054788;28;20522;-63
2023/12/16 00:10:00;;;;;;;15.13;9.70;;;5.40;99.90;;;;;;5054454;28;20108;-63
2023/12/16 00:12:25;;;;;;;14.00;9.35;;;5.40;99.90;;;;;;5054734;28;20108;-63
2023/12/16 00:14:51;;;;;;;15.68;10.10;;;5.40;99.90;;;;;;5054507;28;20064;-64
2023/12/16 00:17:17;;;;;;;15.40;10.00;;;5.40;99.90;;;;;;5054413;28;20108;-63
2023/12/16 00:19:42;;;;;;;14.82;9.27;;;5.40;99.90;;;;;;5054586;28;20060;-63
2023/12/16 00:22:08;;;;;;;17.10;10.77;;;5.40;99.90;;;;;;5053559;28;20063;-64
2023/12/16 00:24:34;;;;;;;13.48;9.05;;;5.40;99.90;;;;;;5054466;28;20040;-63
2023/12/16 00:26:59;;;;;;;14.55;9.38;;;5.50;99.90;;;;;;5053920;28;20021;-65
2023/12/16 00:29:25;;;;;;;14.73;9.10;;;5.50;99.90;;;;;;5054229;28;20487;-63
2023/12/16 00:31:51;;;;;;;13.23;9.68;;;5.50;99.90;;;;;;5054251;28;20116;-64
2023/12/16 00:34:16;;;;;;;14.98;9.55;;;5.50;99.90;;;;;;5053881;28;20029;-65
2023/12/16 00:36:42;;;;;;;15.45;9.10;;;5.50;99.90;;;;;;5054363;28;20032;-63
2023/12/16 00:39:09;;;;;;;12.88;9.65;;;5.50;99.90;;;;;;5053965;28;20449;-64
2023/12/16 00:41:34;;;;;;;14.95;9.73;;;5.50;99.90;;;;;;5054212;28;20088;-63
2023/12/16 00:44:00;;;;;;;16.15;10.23;;;5.50;99.90;;;;;;5054207;28;20083;-64
2023/12/16 00:46:26;;;;;;;14.93;9.35;;;5.50;99.90;;;;;;5053895;28;20029;-63
2023/12/16 00:48:52;;;;;;;14.73;9.48;;;5.50;99.90;;;;;;5053974;28;20025;-63
2023/12/16 00:51:20;;;;;;;15.35;10.93;;;5.40;99.90;;;;;;5054352;28;20086;-63
2023/12/16 00:53:45;;;;;;;14.88;10.38;;;5.50;99.90;;;;;;5053931;28;20162;-64
2023/12/16 00:56:11;;;;;;;14.43;9.90;;;5.50;99.90;;;;;;5053466;28;20125;-64
2023/12/16 00:58:36;;;;;;;17.88;10.50;;;5.40;99.90;;;;;;5053258;28;20049;-64
2023/12/16 01:01:02;;;;;;;16.50;10.77;;;5.40;99.90;;;;;;5053156;28;20033;-64
2023/12/16 01:03:28;;;;;;;16.83;11.50;;;5.50;99.90;;;;;;5053532;28;20037;-64
2023/12/16 01:05:53;;;;;;;17.42;10.65;;;5.50;99.90;;;;;;5053813;28;20492;-64
2023/12/16 01:08:19;;;;;;;18.15;11.35;;;5.40;99.90;;;;;;5053257;28;20021;-62
2023/12/16 01:10:44;;;;;;;15.23;10.77;;;5.40;99.90;;;;;;5053272;28;20454;-63
2023/12/16 01:13:10;;;;;;;15.18;10.05;;;5.40;99.90;;;;;;5053024;28;20107;-63
2023/12/16 01:15:36;;;;;;;16.85;11.00;;;5.40;99.90;;;;;;5053216;28;20077;-64
2023/12/16 01:18:02;;;;;;;15.95;10.73;;;5.40;99.90;;;;;;5053132;28;20029;-63
2023/12/16 01:20:28;;;;;;;18.98;11.32;;;5.40;99.90;;;;;;5053224;28;20052;-63
2023/12/16 01:22:53;;;;;;;15.25;10.63;;;5.40;99.90;;;;;;5053487;28;20063;-63
2023/12/16 01:25:19;;;;;;;16.52;11.00;;;5.40;99.90;;;;;;5053542;28;20366;-64
2023/12/16 01:27:46;;;;;;;15.48;10.63;;;5.40;99.90;;;;;;5053173;28;20033;-63
2023/12/16 01:30:12;;;;;;;16.45;11.65;;;5.40;99.90;;;;;;5052347;28;20492;-64
2023/12/16 01:32:38;;;;;;;16.80;11.05;;;5.40;99.90;;;;;;5052910;28;20081;-64
2023/12/16 01:35:04;;;;;;;15.80;11.30;;;5.40;99.90;;;;;;5052106;28;20025;-63
2023/12/16 01:37:30;;;;;;;17.52;11.23;;;5.40;99.90;;;;;;5053100;28;20040;-63
2023/12/16 01:39:55;;;;;;;18.00;11.80;;;5.40;99.90;;;;;;5053090;28;20024;-64
2023/12/16 01:42:21;;;;;;;19.08;11.68;;;5.40;99.90;;;;;;5052622;28;20025;-64
2023/12/16 01:44:47;;;;;;;18.98;11.68;;;5.40;99.90;;;;;;5053013;28;20086;-64
2023/12/16 01:47:12;;;;;;;17.73;11.57;;;5.40;99.90;;;;;;5052818;28;20056;-63
2023/12/16 01:49:38;;;;;;;21.33;12.18;;;5.40;99.90;;;;;;5052958;28;20400;-64
2023/12/16 01:52:06;;;;;;;15.93;10.45;;;5.40;99.90;;;;;;5052329;28;20040;-64
2023/12/16 01:54:32;;;;;;;20.30;12.27;;;5.40;99.90;;;;;;5052636;28;20063;-63
2023/12/16 01:57:00;;;;;;;15.25;10.73;;;5.40;99.90;;;;;;5052914;28;20027;-63
2023/12/16 01:59:27;;;;;;;19.15;12.80;;;5.40;99.90;;;;;;5052050;28;20486;-64
2023/12/16 02:01:54;;;;;;;20.23;12.43;;;5.40;99.90;;;;;;5052213;28;20492;-63
2023/12/16 02:04:20;;;;;;;13.23;10.15;;;5.40;99.90;;;;;;5051774;28;20334;-63
2023/12/16 02:06:45;;;;;;;16.55;11.23;;;5.40;99.90;;;;;;5052572;28;20025;-63
2023/12/16 02:09:17;;;;;;;16.17;10.88;;;5.40;99.90;;;;;;5051816;28;20055;-64
2023/12/16 02:11:42;;;;;;;13.80;10.23;;;5.40;99.90;;;;;;5052611;28;20017;-64
2023/12/16 02:14:08;;;;;;;16.38;11.43;;;5.40;99.90;;;;;;5051803;28;20036;-64
2023/12/16 02:16:35;;;;;;;17.70;10.57;;;5.40;99.90;;;;;;5052212;28;20108;-64
2023/12/16 02:19:03;;;;;;;18.38;11.13;;;5.30;99.90;;;;;;5052205;28;20025;-67
2023/12/16 02:21:28;;;;;;;17.77;11.10;;;5.30;99.90;;;;;;5051523;28;20036;-64
2023/12/16 02:23:54;;;;;;;15.10;10.35;;;5.40;99.90;;;;;;5052487;28;20370;-64
2023/12/16 02:26:20;;;;;;;18.30;11.60;;;5.30;99.90;;;;;;5051389;28;20028;-64
2023/12/16 02:28:45;;;;;;;16.10;10.50;;;5.30;99.90;;;;;;5051664;28;20513;-64
2023/12/16 02:31:11;;;;;;;16.55;12.23;;;5.30;99.90;;;;;;5051481;28;20051;-63
2023/12/16 02:33:38;;;;;;;17.08;11.65;;;5.30;99.90;;;;;;5052071;28;20430;-63
2023/12/16 02:36:04;;;;;;;16.48;10.82;;;5.30;99.90;;;;;;5051540;28;20044;-64
2023/12/16 02:38:29;;;;;;;16.35;11.07;;;5.30;99.90;;;;;;5052114;28;20033;-64
2023/12/16 02:40:55;;;;;;;18.52;11.05;;;5.30;99.90;;;;;;5051568;28;20100;-64
2023/12/16 02:43:21;;;;;;;19.02;11.65;;;5.20;99.90;;;;;;5051093;28;20029;-64
2023/12/16 02:45:46;;;;;;;19.30;12.07;;;5.20;99.90;;;;;;5051516;28;20041;-64
2023/12/16 02:48:12;;;;;;;18.95;11.73;;;5.20;99.90;;;;;;5051217;28;20028;-64
2023/12/16 02:50:37;;;;;;;18.35;11.02;;;5.20;99.90;;;;;;5051721;28;20053;-63
2023/12/16 02:53:03;;;;;;;15.52;11.35;;;5.20;99.90;;;;;;5051583;28;20104;-66
2023/12/16 02:55:29;;;;;;;18.00;11.98;;;5.20;99.90;;;;;;5051570;28;20025;-64
2023/12/16 02:57:54;;;;;;;17.50;10.95;;;5.20;99.90;;;;;;5051713;28;20036;-64
2023/12/16 03:00:20;;;;;;;17.67;11.15;;;5.20;99.90;;;;;;5050949;28;20503;-63
2023/12/16 03:02:46;;;;;;;16.23;10.90;;;5.20;99.90;;;;;;5051786;28;20439;-63
2023/12/16 03:05:11;;;;;;;15.93;11.23;;;5.20;99.90;;;;;;5051458;28;20040;-64
2023/12/16 03:07:38;;;;;;;17.02;11.25;;;5.20;99.90;;;;;;5051289;28;20425;-64
2023/12/16 03:10:04;;;;;;;18.42;12.32;;;5.20;99.90;;;;;;5051145;28;20028;-64
2023/12/16 03:12:30;;;;;;;19.20;12.02;;;5.20;99.90;;;;;;5051527;28;20029;-64
2023/12/16 03:14:56;;;;;;;17.52;11.65;;;5.20;99.90;;;;;;5051240;28;20051;-64
2023/12/16 03:17:21;;;;;;;16.45;11.02;;;5.20;99.90;;;;;;5050743;28;20029;-64
2023/12/16 03:19:47;;;;;;;18.20;11.50;;;5.20;99.90;;;;;;5053505;28;20116;-64
2023/12/16 03:22:12;;;;;;;19.92;13.43;;;5.20;99.90;;;;;;5071137;28;20020;-64
2023/12/16 03:24:38;;;;;;;19.40;12.52;;;5.20;99.90;;;;;;5071430;28;20472;-64
2023/12/16 03:27:04;;;;;;;18.13;11.85;;;5.20;99.90;;;;;;5071479;28;20527;-64
2023/12/16 03:29:31;;;;;;;20.13;12.65;;;5.10;99.90;;;;;;5070650;28;20473;-64
2023/12/16 03:31:57;;;;;;;17.67;12.45;;;5.20;99.90;;;;;;5071380;28;20025;-64
2023/12/16 03:34:22;;;;;;;17.63;12.15;;;5.20;99.90;;;;;;5070705;28;20388;-64
2023/12/16 03:36:48;;;;;;;15.70;11.43;;;5.10;99.90;;;;;;5071777;28;20504;-64
2023/12/16 03:39:14;;;;;;;16.52;11.80;;;5.10;99.90;;;;;;5071605;28;20031;-64
2023/12/16 03:41:39;;;;;;;20.40;12.50;;;5.10;99.90;;;;;;5071962;28;20480;-63
2023/12/16 03:44:05;;;;;;;18.52;12.48;;;5.10;99.90;;;;;;5071503;28;20042;-65
2023/12/16 03:46:30;;;;;;;15.57;11.00;;;5.00;99.90;;;;;;5070978;28;20050;-65
2023/12/16 03:48:56;;;;;;;19.13;12.40;;;5.00;99.90;;;;;;5071226;28;20107;-64
2023/12/16 03:51:23;;;;;;;16.58;11.57;;;5.00;99.90;;;;;;5071018;28;20024;-63
2023/12/16 03:53:48;;;;;;;16.65;11.77;;;5.00;99.90;;;;;;5071118;28;20060;-64
2023/12/16 03:56:15;;;;;;;14.85;11.23;;;5.00;99.90;;;;;;5070916;28;20067;-64
2023/12/16 03:58:41;;;;;;;19.40;12.32;;;5.00;99.90;;;;;;5073950;28;20056;-65
2023/12/16 04:01:13;;;;;;;18.77;12.35;;;5.00;99.90;;;;;;5074486;28;20531;-64
2023/12/16 04:03:39;;;;;;;14.70;10.68;;;5.00;99.90;;;;;;5075080;28;20032;-64
2023/12/16 04:06:09;;;;;;;17.50;12.18;;;5.00;99.90;;;;;;5075094;28;20098;-63
2023/12/16 04:08:34;;;;;;;16.40;11.65;;;5.00;99.90;;;;;;5057796;28;20029;-64
2023/12/16 04:11:00;;;;;;;18.63;12.60;;;5.00;99.90;;;;;;5055135;28;20028;-64
2023/12/16 04:13:26;;;;;;;15.98;11.38;;;5.00;99.90;;;;;;5054109;28;20350;-64
2023/12/16 04:15:52;;;;;;;18.05;11.75;;;5.00;99.90;;;;;;5054748;28;20134;-64
2023/12/16 04:18:18;;;;;;;13.43;10.10;;;5.00;99.90;;;;;;5054094;28;20466;-62
2023/12/16 04:20:44;;;;;;;18.85;12.40;;;5.00;99.90;;;;;;5054686;28;20047;-63
2023/12/16 04:23:09;;;;;;;17.08;11.88;;;5.00;99.90;;;;;;5054981;28;20021;-63
2023/12/16 04:25:35;;;;;;;19.20;12.10;;;5.00;99.90;;;;;;5054242;28;20083;-64
2023/12/16 04:28:02;;;;;;;18.13;11.73;;;5.00;99.90;;;;;;5054350;28;20426;-63
2023/12/16 04:30:28;;;;;;;17.60;11.05;;;5.00;99.90;;;;;;5053989;28;20408;-63
2023/12/16 04:32:53;;;;;;;17.63;10.75;;;5.00;99.90;;;;;;5054532;28;20078;-63
2023/12/16 04:35:19;;;;;;;16.50;11.15;;;5.00;99.90;;;;;;5054063;28;20454;-63
2023/12/16 04:37:44;;;;;;;18.48;11.63;;;5.00;99.90;;;;;;5054120;28;20561;-64
2023/12/16 04:40:10;;;;;;;14.88;11.25;;;5.00;99.90;;;;;;5052925;28;20021;-64
2023/12/16 04:42:36;;;;;;;16.98;10.65;;;5.10;99.90;;;;;;5053742;28;20470;-63
2023/12/16 04:45:02;;;;;;;17.80;11.27;;;5.10;99.90;;;;;;5053864;28;20059;-62
2023/12/16 04:47:27;;;;;;;15.05;10.95;;;5.10;99.90;;;;;;5053617;28;20107;-63
2023/12/16 04:49:53;;;;;;;17.17;11.32;;;5.10;99.90;;;;;;5053858;28;20446;-63
2023/12/16 04:52:18;;;;;;;16.42;10.65;;;5.20;99.90;;;;;;5054176;28;20174;-63
2023/12/16 04:54:44;;;;;;;19.52;11.30;;;5.20;99.90;;;;;;5054057;28;20029;-64
2023/12/16 04:57:10;;;;;;;16.05;11.43;;;5.20;99.90;;;;;;5053919;28;20025;-63
2023/12/16 04:59:36;;;;;;;17.30;12.23;;;5.10;99.90;;;;;;5053278;28;20091;-64
2023/12/16 05:02:02;;;;;;;16.13;11.18;;;5.20;99.90;;;;;;5054184;28;20031;-63
2023/12/16 05:04:28;;;;;;;16.33;11.15;;;5.20;99.90;;;;;;5053340;28;20036;-63
2023/12/16 05:06:53;;;;;;;20.73;12.48;;;5.20;99.90;;;;;;5054066;28;20473;-64
2023/12/16 05:09:19;;;;;;;17.00;11.55;;;5.20;99.90;;;;;;5053201;28;20124;-64
2023/12/16 05:11:45;;;;;;;18.20;11.52;;;5.10;99.90;;;;;;5053444;28;20040;-64
2023/12/16 05:14:10;;;;;;;16.58;11.80;;;5.10;99.90;;;;;;5053480;28;20033;-64
2023/12/16 05:16:37;;;;;;;15.40;11.63;;;5.10;99.90;;;;;;5053586;28;20112;-64
2023/12/16 05:19:06;;;;;;;18.10;12.43;;;5.10;99.90;;;;;;5053753;28;20029;-64
2023/12/16 05:21:31;;;;;;;19.20;12.32;;;5.10;99.90;;;;;;5066455;28;20020;-64
2023/12/16 05:23:57;;;;;;;16.77;12.00;;;5.10;99.90;;;;;;5073748;28;20090;-64
2023/12/16 05:26:23;;;;;;;20.35;13.18;;;5.10;99.90;;;;;;5073286;28;20058;-64
2023/12/16 05:28:48;;;;;;;18.67;12.38;;;5.10;99.90;;;;;;5073452;28;20115;-63
2023/12/16 05:31:14;;;;;;;17.30;12.45;;;5.10;99.90;;;;;;5073760;28;20028;-64
2023/12/16 05:33:39;;;;;;;15.35;11.63;;;5.10;99.90;;;;;;5073484;28;20025;-63
2023/12/16 05:36:07;;;;;;;19.20;12.50;;;5.20;99.90;;;;;;5073329;28;20381;-64
2023/12/16 05:38:32;;;;;;;19.67;12.45;;;5.10;99.90;;;;;;5072617;28;20099;-65
2023/12/16 05:40:58;;;;;;;16.65;11.57;;;5.10;99.90;;;;;;5072909;28;20104;-65
2023/12/16 05:43:23;;;;;;;18.52;12.25;;;5.20;99.90;;;;;;5072485;28;20051;-65
2023/12/16 05:45:49;;;;;;;18.25;12.70;;;5.20;99.90;;;;;;5072675;28;20032;-64
2023/12/16 05:48:14;;;;;;;18.48;12.70;;;5.20;99.90;;;;;;5072920;28;20074;-64
2023/12/16 05:50:40;;;;;;;17.85;12.15;;;5.20;99.90;;;;;;5072172;28;20025;-63
2023/12/16 05:53:06;;;;;;;17.30;12.57;;;5.20;99.90;;;;;;5072496;28;20020;-63
2023/12/16 05:55:33;;;;;;;19.70;12.45;;;5.20;99.90;;;;;;5072387;28;20028;-63
2023/12/16 05:57:59;;;;;;;15.77;12.00;;;5.20;99.90;;;;;;5072715;28;20113;-64
2023/12/16 06:00:24;;;;;;;19.63;12.50;;;5.20;99.90;;;;;;5072405;28;20094;-63
2023/12/16 06:02:50;;;;;;;17.08;11.88;;;5.20;99.90;;;;;;5072534;28;20509;-63
2023/12/16 06:05:17;;;;;;;21.55;13.02;;;5.20;99.90;;;;;;5072458;28;20049;-63
2023/12/16 06:07:42;;;;;;;17.85;11.73;;;5.20;99.90;;;;;;5058677;28;20369;-63
2023/12/16 06:10:08;;;;;;;18.48;11.95;;;5.20;99.90;;;;;;5052429;28;20028;-63
2023/12/16 06:12:34;;;;;;;16.58;11.93;;;5.20;99.90;;;;;;5052264;28;20440;-63
2023/12/16 06:14:59;;;;;;;14.98;11.98;;;5.20;99.90;;;;;;5052024;28;20380;-64
2023/12/16 06:17:25;;;;;;;19.33;12.32;;;5.30;99.90;;;;;;5050601;28;20029;-64
2023/12/16 06:19:52;;;;;;;17.65;12.45;;;5.20;99.90;;;;;;5051365;28;20120;-64
2023/12/16 06:22:17;;;;;;;15.48;11.85;;;5.20;99.90;;;;;;5052205;28;20513;-64
2023/12/16 06:24:43;;;;;;;18.90;12.15;;;5.30;99.90;;;;;;5051843;28;20037;-64
2023/12/16 06:27:08;;;;;;;18.35;12.98;;;5.30;99.90;;;;;;5052475;28;20033;-63
2023/12/16 06:29:34;;;;;;;17.65;12.40;;;5.30;99.90;;;;;;5051517;28;20462;-64
2023/12/16 06:32:00;;;;;;;19.70;13.45;;;5.30;99.90;;;;;;5052188;28;20032;-65
2023/12/16 06:34:25;;;;;;;17.45;12.18;;;5.30;99.90;;;;;;5050784;28;20067;-64
2023/12/16 06:36:51;;;;;;;14.93;12.10;;;5.30;99.90;;;;;;5051797;28;20377;-63
2023/12/16 06:39:16;;;;;;;19.33;13.43;;;5.30;99.90;;;;;;5052268;28;20154;-63
2023/12/16 06:41:42;;;;;;;16.20;12.15;;;5.30;99.90;;;;;;5051557;28;20099;-64
2023/12/16 06:44:07;;;;;;;17.48;12.73;;;5.30;99.90;;;;;;5051762;28;20033;-63
2023/12/16 06:46:33;;;;;;;19.02;12.63;;;5.30;99.90;;;;;;5051799;28;20021;-63
2023/12/16 06:48:59;;;;;;;18.60;12.35;;;5.30;99.90;;;;;;5051849;28;20535;-64
2023/12/16 06:51:24;;;;;;;17.35;12.40;;;5.30;99.90;;;;;;5051400;28;20021;-64
2023/12/16 06:53:50;;;;;;;18.65;12.80;;;5.40;99.90;;;;;;5052280;28;20339;-64
2023/12/16 06:56:15;;;;;;;16.95;12.43;;;5.30;99.90;;;;;;5050476;28;20064;-63
2023/12/16 06:58:43;;;;;;;17.58;12.27;;;5.40;99.90;;;;;;5051130;28;20083;-63
2023/12/16 07:01:12;;;;;;;15.95;11.52;;;5.30;99.90;;;;;;5051752;28;20037;-63
2023/12/16 07:03:40;;;;;;;18.77;11.85;;;5.40;99.90;;;;;;5051067;28;20041;-64
2023/12/16 07:06:06;;;;;;;17.75;12.63;;;5.40;99.90;;;;;;5052190;28;20090;-63
2023/12/16 07:08:32;;;;;;;16.85;12.68;;;5.40;99.90;;;;;;5051362;28;20032;-63
2023/12/16 07:10:58;;;;;;;16.30;11.95;;;5.40;99.90;;;;;;5051826;28;20025;-63
2023/12/16 07:13:23;;;;;;;16.85;12.00;;;5.40;99.90;;;;;;5050030;28;20029;-63
2023/12/16 07:15:50;;;;;;;15.30;11.48;;;5.40;99.90;;;;;;5051417;28;20044;-65
2023/12/16 07:18:15;;;;;;;17.73;12.30;;;5.50;99.90;;;;;;5050741;28;20029;-64
2023/12/16 07:20:41;;;;;;;17.00;11.90;;;5.50;99.90;;;;;;5051528;28;20104;-65
2023/12/16 07:23:07;;;;;;;17.38;11.80;;;5.40;99.90;;;;;;5051518;28;20032;-66
2023/12/16 07:25:32;;;;;;;15.93;12.13;;;5.50;99.90;;;;;;5052466;28;20024;-65
2023/12/16 07:27:58;;;;;;;18.10;12.25;;;5.50;99.90;;;;;;5054057;28;20036;-65
2023/12/16 07:30:24;;;;;;;17.65;12.15;;;5.50;99.90;;;;;;5047253;28;20037;-69
2023/12/16 07:32:50;;;;;;;17.27;11.52;;;5.50;99.90;;;;;;5033672;28;20064;-66
2023/12/16 07:35:15;;;;;;;16.58;11.52;;;5.50;99.90;;;;;;5035726;28;20029;-64
2023/12/16 07:37:42;;;;;;;16.25;11.13;;;5.50;99.90;;;;;;5035146;28;20319;-64
2023/12/16 07:40:09;;;;;;;19.50;11.80;;;5.60;99.90;;;;;;5035704;28;20033;-64
2023/12/16 07:42:38;;;;;;;16.15;11.27;;;5.60;99.90;;;;;;5035434;28;20083;-64
2023/12/16 07:45:05;;;;;;;18.02;12.35;;;5.60;99.90;;;;;;5037404;28;20033;-64
2023/12/16 07:47:31;;;;;;;15.95;11.10;;;5.60;99.90;;;;;;5043600;28;20033;-65
2023/12/16 07:49:57;;;;;;;16.77;11.65;;;5.70;99.90;;;;;;5035329;28;20104;-64
2023/12/16 07:52:23;;;;;;;16.17;10.73;;;5.70;99.90;;;;;;5035202;28;20104;-64
2023/12/16 07:54:49;;;;;;;15.70;11.40;;;5.70;99.90;;;;;;5034986;28;20095;-64
2023/12/16 07:57:14;;;;;;;15.02;10.80;;;5.70;99.90;;;;;;5037805;28;20108;-65
2023/12/16 07:59:41;;;;;;;14.38;9.98;;;5.70;99.90;;;;;;5043097;28;20085;-67
2023/12/16 08:02:08;;;;;;;17.23;10.68;;;5.80;99.90;;;;;;5035422;28;20433;-65
2023/12/16 08:04:35;;;;;;;15.52;10.13;;;5.80;99.90;;;;;;5034317;28;20128;-65
2023/12/16 08:07:01;;;;;;;16.50;10.95;;;5.80;99.90;;;;;;5054511;28;20104;-64
2023/12/16 08:09:27;;;;;;;15.90;10.63;;;5.80;99.90;;;;;;5054780;28;20389;-67
2023/12/16 08:11:57;;;;;;;13.43;10.40;;;5.80;99.90;;;;;;5054865;28;20029;-64
2023/12/16 08:14:27;;;;;;;15.45;11.18;;;5.90;99.90;;;;;;5054515;28;20040;-65
2023/12/16 08:16:53;;;;;;;14.35;10.00;;;5.90;99.90;;;;;;5046312;28;20047;-66
2023/12/16 08:19:19;;;;;;;15.40;9.93;;;5.90;99.90;;;;;;5035208;28;20029;-65
2023/12/16 08:21:45;;;;;;;12.70;8.60;;;5.90;99.90;;;;;;5033393;28;20025;-64
2023/12/16 08:24:11;;;;;;;15.38;9.27;;;5.90;99.90;;;;;;5034676;28;20029;-64
2023/12/16 08:26:36;;;;;;;14.38;8.75;;;5.90;99.90;;;;;;5034104;28;20034;-65
2023/12/16 08:29:02;;;;;;;15.48;9.25;;;6.00;99.90;;;;;;5040849;28;20112;-64
2023/12/16 08:31:28;;;;;;;13.00;8.63;;;6.00;99.90;;;;;;5039542;28;20059;-64
2023/12/16 08:33:54;;;;;;;13.68;8.85;;;6.00;99.90;;;;;;5034459;28;20021;-65
2023/12/16 08:36:20;;;;;;;13.98;8.43;;;6.00;99.90;;;;;;5034017;28;20103;-64
2023/12/16 08:38:45;;;;;;;12.88;8.18;;;6.10;99.90;;;;;;5036074;28;20029;-64
2023/12/16 08:41:12;;;;;;;11.30;8.75;;;6.10;99.90;;;;;;5043169;28;20032;-64
2023/12/16 08:43:38;;;;;;;12.88;7.97;;;6.10;99.90;;;;;;5032139;28;20036;-65
2023/12/16 08:46:04;;;;;;;15.95;7.95;;;6.20;99.90;;;;;;5034505;28;20026;-65
2023/12/16 08:48:31;;;;;;;15.18;7.97;;;6.20;99.90;;;;;;5033846;28;20022;-68
2023/12/16 08:50:59;;;;;;;14.30;7.90;;;6.20;99.90;;;;;;5041326;28;20036;-64
2023/12/16 08:53:25;;;;;;;12.73;7.40;;;6.20;99.90;;;;;;5054070;28;20595;-64
2023/12/16 08:55:51;;;;;;;12.15;8.23;;;6.30;99.90;;;;;;5053468;28;20187;-63
2023/12/16 08:58:17;;;;;;;13.55;7.93;;;6.30;99.90;;;;;;5051134;28;20115;-64
2023/12/16 09:00:43;;;;;;;12.18;7.68;;;6.30;99.90;;;;;;5053273;28;20120;-65
2023/12/16 09:03:09;;;;;;;11.73;7.72;;;6.40;99.90;;;;;;5053869;28;20033;-65
2023/12/16 09:05:36;;;;;;;10.63;6.85;;;6.40;99.90;;;;;;5053347;28;20033;-65
2023/12/16 09:08:02;;;;;;;13.10;7.13;;;6.50;99.90;;;;;;5053535;28;20029;-64
2023/12/16 09:10:28;;;;;;;13.27;7.43;;;6.50;99.90;;;;;;5053437;28;20032;-64
2023/12/16 09:12:53;;;;;;;11.10;7.25;;;6.50;99.90;;;;;;5053328;28;20025;-64
2023/12/16 09:15:19;;;;;;;11.35;7.20;;;6.50;99.90;;;;;;5053803;28;20075;-64
2023/12/16 09:17:47;;;;;;;11.18;6.90;;;6.60;99.90;;;;;;5054491;28;20029;-64
2023/12/16 09:20:13;;;;;;;13.75;7.32;;;6.60;99.90;;;;;;5072309;28;20028;-64
2023/12/16 09:22:39;;;;;;;14.43;7.20;;;6.60;99.90;;;;;;5073565;28;20029;-65
2023/12/16 09:25:06;;;;;;;10.20;6.65;;;6.60;99.90;;;;;;5073629;28;20063;-65
2023/12/16 09:27:32;;;;;;;13.27;6.78;;;6.70;99.90;;;;;;5072296;28;20029;-64
2023/12/16 09:29:57;;;;;;;11.23;6.40;;;6.70;99.90;;;;;;5072835;28;20568;-64
2023/12/16 09:32:23;;;;;;;10.13;6.70;;;6.70;99.90;;;;;;5073112;28;20024;-64
2023/12/16 09:34:49;;;;;;;12.43;6.15;;;6.70;99.90;;;;;;5071583;28;20032;-64
2023/12/16 09:37:14;;;;;;;10.05;6.20;;;6.70;99.90;;;;;;5073078;28;20221;-63
2023/12/16 09:39:40;;;;;;;8.98;5.68;;;6.70;99.90;;;;;;5072909;28;20068;-64
2023/12/16 09:42:06;;;;;;;12.77;6.57;;;6.80;99.90;;;;;;5073012;28;20036;-64
2023/12/16 09:44:40;;;;;;;10.95;6.32;;;6.80;99.90;;;;;;5073224;28;20040;-65
2023/12/16 09:47:08;;;;;;;8.10;6.13;;;6.90;99.90;;;;;;5072765;28;20158;-65
2023/12/16 09:49:36;;;;;;;11.75;6.90;;;6.80;99.90;;;;;;5073289;28;20020;-65
2023/12/16 09:52:01;;;;;;;11.35;6.45;;;6.90;99.90;;;;;;5073392;28;20409;-64
2023/12/16 09:54:27;;;;;;;10.25;7.10;;;6.90;99.90;;;;;;5072636;28;20118;-64
2023/12/16 09:56:55;;;;;;;10.68;7.00;;;6.90;99.90;;;;;;5072214;28;20108;-64
2023/12/16 09:59:23;;;;;;;13.73;6.78;;;6.90;99.90;;;;;;5072675;28;20044;-64
2023/12/16 10:01:52;;;;;;;11.50;6.88;;;7.00;99.90;;;;;;5072112;28;20028;-64
2023/12/16 10:04:18;;;;;;;13.00;6.82;;;7.00;99.90;;;;;;5072434;28;20489;-63
2023/12/16 10:06:44;;;;;;;10.10;6.20;;;7.00;99.80;;;;;;5060133;28;20094;-66
2023/12/16 10:09:09;;;;;;;11.68;6.43;;;7.00;99.50;;;;;;5052952;28;20029;-64
2023/12/16 10:11:39;;;;;;;9.73;6.45;;;7.10;99.50;;;;;;5052798;28;20029;-64
2023/12/16 10:14:05;;;;;;;17.88;9.68;;;7.10;99.40;;;;;;5052564;28;20025;-65
2023/12/16 10:16:31;;;;;;;11.98;6.90;;;7.10;99.30;;;;;;5052606;28;20033;-64
2023/12/16 10:18:58;;;;;;;11.90;6.57;;;7.20;99.10;;;;;;5052026;28;20063;-64
2023/12/16 10:21:31;;;;;;;12.32;6.28;;;7.20;98.80;;;;;;5052485;28;20025;-64
2023/12/16 10:23:59;;;;;;;10.27;5.85;;;7.30;98.60;;;;;;5051935;28;20247;-63
2023/12/16 10:26:25;;;;;;;10.73;6.70;;;7.30;98.30;;;;;;5052357;28;20390;-64
2023/12/16 10:28:52;;;;;;;9.57;6.00;;;7.40;98.40;;;;;;5051621;28;20044;-64
2023/12/16 10:31:21;;;;;;;11.35;6.75;;;7.50;98.50;;;;;;5052321;28;20033;-65
2023/12/16 10:33:48;;;;;;;11.00;6.13;;;7.60;97.90;;;;;;5052082;28;20119;-64
2023/12/16 10:36:14;;;;;;;7.55;5.70;;;7.60;97.20;;;;;;5052163;28;20021;-64
2023/12/16 10:38:40;;;;;;;10.27;6.18;;;7.70;96.50;;;;;;5051765;28;20054;-64
2023/12/16 10:41:06;;;;;;;8.05;5.90;;;7.80;95.70;;;;;;5052433;28;20108;-64
2023/12/16 10:43:32;;;;;;;10.90;6.22;;;7.80;95.50;;;;;;5052442;28;20112;-64
2023/12/16 10:46:03;;;;;;;11.43;5.78;;;7.90;95.10;;;;;;5051629;28;20504;-64
2023/12/16 10:48:32;;;;;;;9.18;5.63;;;8.10;94.90;;;;;;5052150;28;20493;-64
2023/12/16 10:51:00;;;;;;;8.55;6.00;;;8.20;94.40;;;;;;5051688;28;20031;-64
2023/12/16 10:53:29;;;;;;;9.77;5.70;;;8.30;94.20;;;;;;5052443;28;20023;-64
2023/12/16 10:55:59;;;;;;;10.18;6.15;;;8.40;93.80;;;;;;5051442;28;20106;-63
2023/12/16 10:58:27;;;;;;;9.90;5.47;;;8.60;93.50;;;;;;5050431;28;20060;-64
2023/12/16 11:01:08;;;;;;;8.68;5.45;;;8.70;92.80;;;;;;5051502;28;20111;-64
2023/12/16 11:03:41;;;;;;;8.93;5.20;;;8.80;92.30;;;;;;5051462;28;20021;-65
2023/12/16 11:06:12;;;;;;;8.52;5.70;;;8.90;91.20;;;;;;5052705;28;20499;-64
2023/12/16 11:08:39;;;;;;;9.30;5.28;;;8.90;90.70;;;;;;5058746;28;20033;-63
2023/12/16 11:11:06;;;;;;;9.73;5.65;;;9.00;90.40;;;;;;5058474;28;20373;-65
2023/12/16 11:13:32;;;;;;;8.73;5.25;;;9.00;90.10;;;;;;5058499;28;20064;-63
2023/12/16 11:16:19;;;;;;;7.97;5.40;;;9.10;90.30;;;;;;5057946;28;20039;-64
2023/12/16 11:18:49;;;;;;;11.00;5.15;;;9.20;88.90;;;;;;5066506;28;20451;-63
2023/12/16 11:21:18;;;;;;;8.32;5.38;;;9.30;89.10;;;;;;5078683;28;20029;-65
2023/12/16 11:23:45;;;;;;;8.10;5.28;;;9.30;88.10;;;;;;5077971;28;20029;-64
2023/12/16 11:26:11;;;;;;;11.68;5.28;;;9.40;87.00;;;;;;5078581;28;20078;-64
2023/12/16 11:28:37;;;;;;;9.10;5.60;;;9.50;86.20;;;;;;5078268;28;20376;-64
2023/12/16 11:31:03;;;;;;;7.30;4.90;;;9.50;86.40;;;;;;5078026;28;20422;-65
2023/12/16 11:33:46;;;;;;;9.10;5.82;;;9.60;86.10;;;;;;5078254;28;20381;-65
2023/12/16 11:36:14;;;;;;;8.65;4.78;;;9.60;85.70;;;;;;5078749;28;20032;-64
2023/12/16 11:38:44;;;;;;;9.52;5.28;;;9.70;84.80;;;;;;5078297;28;20436;-64
2023/12/16 11:41:48;;;;;;;10.43;5.40;;;9.80;84.50;;;;;;5078410;28;20058;-64
2023/12/16 11:44:14;;;;;;;10.02;5.20;;;9.80;84.50;;;;;;5055914;28;20043;-65
2023/12/16 11:46:43;;;;;;;9.43;5.38;;;9.80;83.70;;;;;;5073700;28;20123;-64
2023/12/16 11:49:16;;;;;;;9.23;5.35;;;9.90;83.40;;;;;;5077911;28;20044;-65
2023/12/16 11:51:43;;;;;;;6.60;4.95;;;9.90;83.10;;;;;;5078281;28;20028;-65
2023/12/16 11:54:11;;;;;;;10.75;5.80;;;10.00;82.60;;;;;;5077484;28;20481;-65
2023/12/16 11:56:37;;;;;;;9.40;5.47;;;10.00;82.40;;;;;;5078031;28;20128;-65
2023/12/16 11:59:03;;;;;;;8.98;5.53;;;10.00;82.60;;;;;;5060549;28;20199;-64
2023/12/16 12:01:31;;;;;;;9.55;5.13;;;10.00;81.50;;;;;;5057995;28;20052;-64
2023/12/16 12:03:58;;;;;;;13.07;5.32;;;10.00;81.50;;;;;;5057265;28;20021;-63
2023/12/16 12:06:24;;;;;;;9.55;5.68;;;10.00;81.00;;;;;;5058252;28;20120;-63
2023/12/16 12:08:51;;;;;;;9.63;6.03;;;10.00;80.00;;;;;;5057558;28;20021;-64
2023/12/16 12:11:18;;;;;;;8.52;5.28;;;10.00;80.50;;;;;;5054049;28;20029;-66
2023/12/16 12:13:44;;;;;;;8.73;5.38;;;10.00;80.80;;;;;;5037685;28;20041;-65
2023/12/16 12:16:12;;;;;;;8.73;5.20;;;10.10;80.50;;;;;;5045753;28;20032;-65
2023/12/16 12:18:39;;;;;;;8.43;5.25;;;10.10;79.70;;;;;;5035415;28;20040;-65
2023/12/16 12:21:06;;;;;;;8.85;5.20;;;10.10;78.60;;;;;;5045908;28;20029;-66
2023/12/16 12:23:32;;;;;;;7.75;4.60;;;10.10;78.40;;;;;;5043724;28;20086;-65
2023/12/16 12:25:59;;;;;;;9.45;5.72;;;10.10;78.30;;;;;;5050991;28;20527;-64
2023/12/16 12:28:26;;;;;;;13.77;5.78;;;10.00;78.60;;;;;;5049770;28;20029;-65
2023/12/16 12:31:06;;;;;;;6.82;5.03;;;10.10;79.10;;;;;;5054138;28;20104;-65
2023/12/16 12:33:33;;;;;;;9.35;5.38;;;10.10;79.40;;;;;;5044322;28;20033;-65
2023/12/16 12:36:00;;;;;;;10.82;6.10;;;10.00;78.40;;;;;;5043764;28;20059;-64